sensor_id;sensor_type;location;lat;lon;timestamp;pressure;altitude;pressure_sealevel;temperature;humidity
9289;BME280;4683;50.864;12.086;2024-03-07T00:00:43;99972.44;;;6.28;100.00
9289;BME280;4683;50.864;12.086;2024-03-07T00:03:17;99966.66;;;6.34;100.00
9289;BME280;4683;50.864;12.086;2024-03-07T00:05:46;99967.25;;;6.38;100.00
9289;BME280;4683;50.864;12.086;2024-03-07T00:08:15;99965.06;;;6.43;100.00
9289;BME280;4683;50.864;12.086;2024-03-07T00:10:44;99968.94;;;6.49;100.00
9289;BME280;4683;50.864;12.086;2024-03-07T00:13:14;99973.88;;;6.42;100.00
9289;BME280;4683;50.864;12.086;2024-03-07T00:15:44;99974.88;;;6.51;100.00
9289;BME280;4683;50.864;12.086;2024-03-07T00:18:14;99968.00;;;6.50;100.00
9289;BME280;4683;50.864;12.086;2024-03-07T00:20:44;99965.09;;;6.53;100.00
9289;BME280;4683;50.864;12.086;2024-03-07T00:23:13;99971.97;;;6.54;100.00
9289;BME280;4683;50.864;12.086;2024-03-07T00:25:44;99969.91;;;6.48;100.00
9289;BME280;4683;50.864;12.086;2024-03-07T00:28:16;99957.59;;;6.39;100.00
9289;BME280;4683;50.864;12.086;2024-03-07T00:30:48;99963.06;;;6.35;100.00
9289;BME280;4683;50.864;12.086;2024-03-07T00:33:17;99960.47;;;6.35;100.00
9289;BME280;4683;50.864;12.086;2024-03-07T00:35:50;99965.13;;;6.22;100.00
9289;BME280;4683;50.864;12.086;2024-03-07T00:38:19;99964.19;;;6.33;100.00
9289;BME280;4683;50.864;12.086;2024-03-07T00:40:48;99952.34;;;6.39;100.00
9289;BME280;4683;50.864;12.086;2024-03-07T00:43:17;99943.22;;;6.33;100.00
9289;BME280;4683;50.864;12.086;2024-03-07T00:45:47;99945.72;;;6.34;100.00
9289;BME280;4683;50.864;12.086;2024-03-07T00:48:18;99952.91;;;6.42;100.00
9289;BME280;4683;50.864;12.086;2024-03-07T00:50:47;99952.66;;;6.45;100.00
9289;BME280;4683;50.864;12.086;2024-03-07T00:53:16;99952.38;;;6.48;100.00
9289;BME280;4683;50.864;12.086;2024-03-07T00:55:46;99952.38;;;6.48;100.00
9289;BME280;4683;50.864;12.086;2024-03-07T00:58:15;99951.00;;;6.54;100.00
9289;BME280;4683;50.864;12.086;2024-03-07T01:00:44;99944.94;;;6.53;100.00
9289;BME280;4683;50.864;12.086;2024-03-07T01:03:15;99943.81;;;6.37;100.00
9289;BME280;4683;50.864;12.086;2024-03-07T01:05:45;99945.13;;;6.31;100.00
9289;BME280;4683;50.864;12.086;2024-03-07T01:08:15;99944.19;;;6.32;100.00
9289;BME280;4683;50.864;12.086;2024-03-07T01:10:43;99939.06;;;6.30;100.00
9289;BME280;4683;50.864;12.086;2024-03-07T01:13:12;99933.56;;;6.33;100.00
9289;BME280;4683;50.864;12.086;2024-03-07T01:15:46;99937.16;;;6.32;100.00
9289;BME280;4683;50.864;12.086;2024-03-07T01:18:17;99935.22;;;6.34;100.00
9289;BME280;4683;50.864;12.086;2024-03-07T01:20:46;99932.19;;;6.29;100.00
9289;BME280;4683;50.864;12.086;2024-03-07T01:23:15;99934.50;;;6.23;100.00
9289;BME280;4683;50.864;12.086;2024-03-07T01:25:46;99927.03;;;6.18;100.00
9289;BME280;4683;50.864;12.086;2024-03-07T01:28:15;99927.44;;;6.14;100.00
9289;BME280;4683;50.864;12.086;2024-03-07T01:30:45;99925.53;;;6.25;100.00
9289;BME280;4683;50.864;12.086;2024-03-07T01:33:14;99924.31;;;6.29;100.00
9289;BME280;4683;50.864;12.086;2024-03-07T01:35:44;99919.88;;;6.20;100.00
9289;BME280;4683;50.864;12.086;2024-03-07T01:38:13;99924.72;;;6.25;100.00
9289;BME280;4683;50.864;12.086;2024-03-07T01:40:42;99924.72;;;6.25;100.00
9289;BME280;4683;50.864;12.086;2024-03-07T01:43:11;99918.09;;;6.30;100.00
9289;BME280;4683;50.864;12.086;2024-03-07T01:45:41;99920.88;;;6.29;100.00
9289;BME280;4683;50.864;12.086;2024-03-07T01:48:10;99923.69;;;6.16;100.00
9289;BME280;4683;50.864;12.086;2024-03-07T01:50:41;99912.16;;;6.19;100.00
9289;BME280;4683;50.864;12.086;2024-03-07T01:53:13;99915.38;;;6.32;100.00
9289;BME280;4683;50.864;12.086;2024-03-07T01:55:42;99921.44;;;6.32;100.00
9289;BME280;4683;50.864;12.086;2024-03-07T01:58:15;99914.81;;;6.28;100.00
9289;BME280;4683;50.864;12.086;2024-03-07T02:00:46;99910.25;;;6.30;100.00
9289;BME280;4683;50.864;12.086;2024-03-07T02:03:14;99910.34;;;6.19;100.00
9289;BME280;4683;50.864;12.086;2024-03-07T02:05:44;99898.84;;;6.31;100.00
9289;BME280;4683;50.864;12.086;2024-03-07T02:08:15;99904.94;;;6.42;100.00
9289;BME280;4683;50.864;12.086;2024-03-07T02:10:44;99909.06;;;6.44;100.00
9289;BME280;4683;50.864;12.086;2024-03-07T02:13:13;99907.78;;;6.29;100.00
9289;BME280;4683;50.864;12.086;2024-03-07T02:15:42;99901.56;;;6.30;100.00
9289;BME280;4683;50.864;12.086;2024-03-07T02:18:11;99902.38;;;6.30;100.00
9289;BME280;4683;50.864;12.086;2024-03-07T02:20:45;99891.47;;;6.25;100.00
9289;BME280;4683;50.864;12.086;2024-03-07T02:23:15;99894.59;;;6.09;100.00
9289;BME280;4683;50.864;12.086;2024-03-07T02:25:44;99894.38;;;6.22;100.00
9289;BME280;4683;50.864;12.086;2024-03-07T02:28:13;99892.53;;;6.13;100.00
9289;BME280;4683;50.864;12.086;2024-03-07T02:30:41;99896.03;;;6.23;100.00
9289;BME280;4683;50.864;12.086;2024-03-07T02:33:09;99890.00;;;6.32;100.00
9289;BME280;4683;50.864;12.086;2024-03-07T02:35:41;99886.84;;;6.39;100.00
9289;BME280;4683;50.864;12.086;2024-03-07T02:38:11;99891.09;;;6.40;100.00
9289;BME280;4683;50.864;12.086;2024-03-07T02:40:40;99882.00;;;6.34;100.00
9289;BME280;4683;50.864;12.086;2024-03-07T02:43:09;99881.84;;;6.35;100.00
9289;BME280;4683;50.864;12.086;2024-03-07T02:45:37;99884.47;;;6.35;100.00
9289;BME280;4683;50.864;12.086;2024-03-07T02:48:06;99884.78;;;6.42;100.00
9289;BME280;4683;50.864;12.086;2024-03-07T02:50:36;99885.06;;;6.49;100.00
9289;BME280;4683;50.864;12.086;2024-03-07T02:53:05;99880.38;;;6.43;100.00
9289;BME280;4683;50.864;12.086;2024-03-07T02:55:36;99880.78;;;6.48;100.00
9289;BME280;4683;50.864;12.086;2024-03-07T02:58:05;99875.38;;;6.40;100.00
9289;BME280;4683;50.864;12.086;2024-03-07T03:00:35;99891.03;;;6.51;100.00
9289;BME280;4683;50.864;12.086;2024-03-07T03:03:04;99890.06;;;6.52;100.00
9289;BME280;4683;50.864;12.086;2024-03-07T03:05:33;99886.75;;;6.50;100.00
9289;BME280;4683;50.864;12.086;2024-03-07T03:08:02;99888.50;;;6.40;100.00
9289;BME280;4683;50.864;12.086;2024-03-07T03:10:35;99885.84;;;6.30;100.00
9289;BME280;4683;50.864;12.086;2024-03-07T03:13:04;99886.81;;;6.29;100.00
9289;BME280;4683;50.864;12.086;2024-03-07T03:15:34;99876.19;;;6.30;100.00
9289;BME280;4683;50.864;12.086;2024-03-07T03:18:04;99877.16;;;6.29;100.00
9289;BME280;4683;50.864;12.086;2024-03-07T03:20:33;99882.00;;;6.34;100.00
9289;BME280;4683;50.864;12.086;2024-03-07T03:23:06;99881.84;;;6.35;100.00
9289;BME280;4683;50.864;12.086;2024-03-07T03:25:41;99873.44;;;6.22;100.00
9289;BME280;4683;50.864;12.086;2024-03-07T03:28:10;99880.56;;;6.20;100.00
9289;BME280;4683;50.864;12.086;2024-03-07T03:30:39;99872.28;;;6.15;100.00
9289;BME280;4683;50.864;12.086;2024-03-07T03:33:11;99874.06;;;6.15;100.00
9289;BME280;4683;50.864;12.086;2024-03-07T03:35:41;99867.59;;;6.09;100.00
9289;BME280;4683;50.864;12.086;2024-03-07T03:38:10;99865.69;;;6.21;100.00
9289;BME280;4683;50.864;12.086;2024-03-07T03:40:40;99860.75;;;6.27;100.00
9289;BME280;4683;50.864;12.086;2024-03-07T03:43:10;99866.00;;;6.27;100.00
9289;BME280;4683;50.864;12.086;2024-03-07T03:45:39;99858.47;;;6.13;100.00
9289;BME280;4683;50.864;12.086;2024-03-07T03:48:08;99856.31;;;6.18;100.00
9289;BME280;4683;50.864;12.086;2024-03-07T03:50:37;99858.75;;;6.10;100.00
9289;BME280;4683;50.864;12.086;2024-03-07T03:53:05;99861.16;;;5.92;100.00
9289;BME280;4683;50.864;12.086;2024-03-07T03:55:35;99856.69;;;5.83;100.00
9289;BME280;4683;50.864;12.086;2024-03-07T03:58:08;99850.03;;;6.00;100.00
9289;BME280;4683;50.864;12.086;2024-03-07T04:00:38;99845.50;;;6.02;100.00
9289;BME280;4683;50.864;12.086;2024-03-07T04:03:07;99837.81;;;6.10;100.00
9289;BME280;4683;50.864;12.086;2024-03-07T04:05:37;99843.22;;;6.18;100.00
9289;BME280;4683;50.864;12.086;2024-03-07T04:08:08;99839.44;;;6.01;100.00
9289;BME280;4683;50.864;12.086;2024-03-07T04:10:39;99838.03;;;5.97;100.00
9289;BME280;4683;50.864;12.086;2024-03-07T04:13:10;99828.31;;;6.09;100.00
9289;BME280;4683;50.864;12.086;2024-03-07T04:15:38;99836.09;;;5.99;100.00
9289;BME280;4683;50.864;12.086;2024-03-07T04:18:07;99825.63;;;5.99;100.00
9289;BME280;4683;50.864;12.086;2024-03-07T04:20:36;99825.19;;;5.94;100.00
9289;BME280;4683;50.864;12.086;2024-03-07T04:23:07;99831.75;;;5.89;100.00
9289;BME280;4683;50.864;12.086;2024-03-07T04:25:36;99834.91;;;5.82;100.00
9289;BME280;4683;50.864;12.086;2024-03-07T04:28:05;99832.78;;;5.76;100.00
9289;BME280;4683;50.864;12.086;2024-03-07T04:30:35;99829.88;;;5.70;100.00
9289;BME280;4683;50.864;12.086;2024-03-07T04:33:06;99821.59;;;5.65;100.00
9289;BME280;4683;50.864;12.086;2024-03-07T04:35:35;99823.63;;;5.61;100.00
9289;BME280;4683;50.864;12.086;2024-03-07T04:38:04;99821.28;;;5.58;100.00
9289;BME280;4683;50.864;12.086;2024-03-07T04:40:38;99811.91;;;5.55;100.00
9289;BME280;4683;50.864;12.086;2024-03-07T04:43:08;99819.88;;;5.54;100.00
9289;BME280;4683;50.864;12.086;2024-03-07T04:45:38;99815.75;;;5.51;100.00
9289;BME280;4683;50.864;12.086;2024-03-07T04:48:07;99809.69;;;5.51;100.00
9289;BME280;4683;50.864;12.086;2024-03-07T04:50:36;99805.56;;;5.58;100.00
9289;BME280;4683;50.864;12.086;2024-03-07T04:53:05;99809.34;;;5.65;100.00
9289;BME280;4683;50.864;12.086;2024-03-07T04:55:34;99804.53;;;5.70;100.00
9289;BME280;4683;50.864;12.086;2024-03-07T04:58:03;99816.94;;;5.68;100.00
9289;BME280;4683;50.864;12.086;2024-03-07T05:00:32;99807.88;;;5.72;100.00
9289;BME280;4683;50.864;12.086;2024-03-07T05:03:02;99812.31;;;5.81;100.00
9289;BME280;4683;50.864;12.086;2024-03-07T05:05:32;99818.63;;;5.79;100.00
9289;BME280;4683;50.864;12.086;2024-03-07T05:08:01;99818.50;;;5.80;100.00
9289;BME280;4683;50.864;12.086;2024-03-07T05:10:32;99812.81;;;5.75;100.00
9289;BME280;4683;50.864;12.086;2024-03-07T05:13:03;99812.00;;;5.75;100.00
9289;BME280;4683;50.864;12.086;2024-03-07T05:15:35;99808.41;;;5.76;100.00
9289;BME280;4683;50.864;12.086;2024-03-07T05:18:07;99798.78;;;5.76;100.00
9289;BME280;4683;50.864;12.086;2024-03-07T05:20:35;99792.72;;;5.76;100.00
9289;BME280;4683;50.864;12.086;2024-03-07T05:23:09;99791.88;;;5.75;100.00
9289;BME280;4683;50.864;12.086;2024-03-07T05:25:38;99798.78;;;5.76;100.00
9289;BME280;4683;50.864;12.086;2024-03-07T05:28:07;99785.97;;;5.73;100.00
9289;BME280;4683;50.864;12.086;2024-03-07T05:30:37;99791.31;;;5.72;100.00
9289;BME280;4683;50.864;12.086;2024-03-07T05:33:08;99790.63;;;5.70;100.00
9289;BME280;4683;50.864;12.086;2024-03-07T05:35:37;99791.59;;;5.69;100.00
9289;BME280;4683;50.864;12.086;2024-03-07T05:38:07;99786.94;;;5.72;100.00
9289;BME280;4683;50.864;12.086;2024-03-07T05:40:36;99780.72;;;5.73;100.00
9289;BME280;4683;50.864;12.086;2024-03-07T05:43:05;99795.47;;;5.74;100.00
9289;BME280;4683;50.864;12.086;2024-03-07T05:45:33;99790.19;;;5.65;100.00
9289;BME280;4683;50.864;12.086;2024-03-07T05:48:16;99784.81;;;5.66;100.00
9289;BME280;4683;50.864;12.086;2024-03-07T05:50:44;99782.56;;;5.82;100.00
9289;BME280;4683;50.864;12.086;2024-03-07T05:53:13;99781.88;;;5.90;100.00
9289;BME280;4683;50.864;12.086;2024-03-07T05:55:43;99794.13;;;5.90;100.00
9289;BME280;4683;50.864;12.086;2024-03-07T05:58:12;99796.28;;;5.96;100.00
9289;BME280;4683;50.864;12.086;2024-03-07T06:00:44;99793.66;;;5.96;100.00
9289;BME280;4683;50.864;12.086;2024-03-07T06:03:19;99795.88;;;6.00;100.00
9289;BME280;4683;50.864;12.086;2024-03-07T06:05:48;99787.09;;;6.21;100.00
9289;BME280;4683;50.864;12.086;2024-03-07T06:08:16;99786.84;;;6.33;100.00
9289;BME280;4683;50.864;12.086;2024-03-07T06:10:47;99793.22;;;6.41;100.00
9289;BME280;4683;50.864;12.086;2024-03-07T06:13:19;99798.47;;;6.41;100.00
9289;BME280;4683;50.864;12.086;2024-03-07T06:15:48;99807.25;;;6.40;100.00
9289;BME280;4683;50.864;12.086;2024-03-07T06:18:19;99807.16;;;6.41;100.00
9289;BME280;4683;50.864;12.086;2024-03-07T06:20:48;99807.00;;;6.43;100.00
9289;BME280;4683;50.864;12.086;2024-03-07T06:23:18;99807.25;;;6.40;100.00
9289;BME280;4683;50.864;12.086;2024-03-07T06:25:48;99811.91;;;6.26;100.00
9289;BME280;4683;50.864;12.086;2024-03-07T06:28:21;99804.19;;;6.15;100.00
9289;BME280;4683;50.864;12.086;2024-03-07T06:30:51;99810.47;;;6.03;100.00
9289;BME280;4683;50.864;12.086;2024-03-07T06:33:22;99804.97;;;5.96;100.00
9289;BME280;4683;50.864;12.086;2024-03-07T06:35:55;99796.97;;;5.98;100.00
9289;BME280;4683;50.864;12.086;2024-03-07T06:38:26;99801.38;;;5.97;100.00
9289;BME280;4683;50.864;12.086;2024-03-07T06:40:55;99797.22;;;5.95;100.00
9289;BME280;4683;50.864;12.086;2024-03-07T06:43:26;99803.31;;;5.95;100.00
9289;BME280;4683;50.864;12.086;2024-03-07T06:45:58;99797.53;;;6.01;100.00
9289;BME280;4683;50.864;12.086;2024-03-07T06:48:28;99799.91;;;6.04;100.00
9289;BME280;4683;50.864;12.086;2024-03-07T06:51:03;99789.88;;;6.29;100.00
9289;BME280;4683;50.864;12.086;2024-03-07T06:53:33;99795.28;;;6.66;100.00
9289;BME280;4683;50.864;12.086;2024-03-07T06:56:03;99797.66;;;6.79;100.00
9289;BME280;4683;50.864;12.086;2024-03-07T06:58:33;99801.66;;;6.93;100.00
9289;BME280;4683;50.864;12.086;2024-03-07T07:01:02;99810.34;;;6.83;100.00
9289;BME280;4683;50.864;12.086;2024-03-07T07:03:37;99815.84;;;6.71;100.00
9289;BME280;4683;50.864;12.086;2024-03-07T07:06:06;99814.47;;;6.67;100.00
9289;BME280;4683;50.864;12.086;2024-03-07T07:08:34;99821.09;;;6.51;100.00
9289;BME280;4683;50.864;12.086;2024-03-07T07:11:03;99822.06;;;6.60;100.00
9289;BME280;4683;50.864;12.086;2024-03-07T07:13:33;99816.97;;;6.68;100.00
9289;BME280;4683;50.864;12.086;2024-03-07T07:16:03;99815.84;;;6.71;100.00
9289;BME280;4683;50.864;12.086;2024-03-07T07:18:32;99815.19;;;6.78;100.00
9289;BME280;4683;50.864;12.086;2024-03-07T07:21:02;99825.94;;;6.75;100.00
9289;BME280;4683;50.864;12.086;2024-03-07T07:23:31;99818.06;;;6.66;100.00
9289;BME280;4683;50.864;12.086;2024-03-07T07:26:01;99814.63;;;6.65;100.00
9289;BME280;4683;50.864;12.086;2024-03-07T07:28:29;99821.66;;;6.74;100.00
9289;BME280;4683;50.864;12.086;2024-03-07T07:31:00;99819.44;;;6.79;100.00
9289;BME280;4683;50.864;12.086;2024-03-07T07:33:29;99825.53;;;6.80;100.00
9289;BME280;4683;50.864;12.086;2024-03-07T07:35:58;99826.75;;;6.66;100.00
9289;BME280;4683;50.864;12.086;2024-03-07T07:38:29;99818.88;;;6.85;100.00
9289;BME280;4683;50.864;12.086;2024-03-07T07:40:58;99824.56;;;6.91;100.00
9289;BME280;4683;50.864;12.086;2024-03-07T07:43:27;99831.31;;;7.03;100.00
9289;BME280;4683;50.864;12.086;2024-03-07T07:45:56;99837.53;;;7.02;100.00
9289;BME280;4683;50.864;12.086;2024-03-07T07:48:24;99838.38;;;6.93;100.00
9289;BME280;4683;50.864;12.086;2024-03-07T07:50:55;99844.44;;;6.64;100.00
9289;BME280;4683;50.864;12.086;2024-03-07T07:53:23;99833.53;;;6.59;100.00
9289;BME280;4683;50.864;12.086;2024-03-07T07:55:53;99843.03;;;6.70;100.00
9289;BME280;4683;50.864;12.086;2024-03-07T07:58:24;99844.28;;;6.95;100.00
9289;BME280;4683;50.864;12.086;2024-03-07T08:00:53;99857.41;;;6.75;100.00
9289;BME280;4683;50.864;12.086;2024-03-07T08:03:23;99852.03;;;7.16;100.00
9289;BME280;4683;50.864;12.086;2024-03-07T08:05:52;99864.59;;;7.31;100.00
9289;BME280;4683;50.864;12.086;2024-03-07T08:08:21;99869.28;;;7.28;100.00
9289;BME280;4683;50.864;12.086;2024-03-07T08:10:52;99865.25;;;7.53;100.00
9289;BME280;4683;50.864;12.086;2024-03-07T08:13:22;99867.69;;;7.74;100.00
9289;BME280;4683;50.864;12.086;2024-03-07T08:15:53;99871.81;;;7.76;100.00
9289;BME280;4683;50.864;12.086;2024-03-07T08:18:22;99868.44;;;7.94;100.00
9289;BME280;4683;50.864;12.086;2024-03-07T08:20:50;99871.03;;;7.56;100.00
9289;BME280;4683;50.864;12.086;2024-03-07T08:23:23;99866.53;;;7.96;100.00
9289;BME280;4683;50.864;12.086;2024-03-07T08:25:55;99877.44;;;8.01;100.00
9289;BME280;4683;50.864;12.086;2024-03-07T08:28:23;99870.28;;;8.21;100.00
9289;BME280;4683;50.864;12.086;2024-03-07T08:30:54;99869.38;;;8.39;100.00
9289;BME280;4683;50.864;12.086;2024-03-07T08:33:23;99874.59;;;8.49;100.00
9289;BME280;4683;50.864;12.086;2024-03-07T08:35:52;99882.44;;;8.22;100.00
9289;BME280;4683;50.864;12.086;2024-03-07T08:38:21;99890.13;;;7.49;100.00
9289;BME280;4683;50.864;12.086;2024-03-07T08:40:50;99882.00;;;7.23;100.00
9289;BME280;4683;50.864;12.086;2024-03-07T08:43:22;99881.03;;;7.04;100.00
9289;BME280;4683;50.864;12.086;2024-03-07T08:45:53;99872.44;;;7.22;100.00
9289;BME280;4683;50.864;12.086;2024-03-07T08:48:22;99879.25;;;7.05;100.00
9289;BME280;4683;50.864;12.086;2024-03-07T08:50:51;99881.03;;;7.33;100.00
9289;BME280;4683;50.864;12.086;2024-03-07T08:53:19;99877.06;;;7.76;100.00
9289;BME280;4683;50.864;12.086;2024-03-07T08:55:49;99871.56;;;7.70;100.00
9289;BME280;4683;50.864;12.086;2024-03-07T08:58:24;99875.66;;;7.92;100.00
9289;BME280;4683;50.864;12.086;2024-03-07T09:00:52;99879.69;;;8.23;100.00
9289;BME280;4683;50.864;12.086;2024-03-07T09:03:22;99881.78;;;8.20;100.00
9289;BME280;4683;50.864;12.086;2024-03-07T09:05:52;99877.81;;;8.06;100.00
9289;BME280;4683;50.864;12.086;2024-03-07T09:08:21;99880.94;;;7.82;100.00
9289;BME280;4683;50.864;12.086;2024-03-07T09:10:50;99878.88;;;8.23;100.00
9289;BME280;4683;50.864;12.086;2024-03-07T09:13:23;99889.31;;;8.05;100.00
9289;BME280;4683;50.864;12.086;2024-03-07T09:15:54;99888.91;;;8.00;100.00
9289;BME280;4683;50.864;12.086;2024-03-07T09:18:23;99884.38;;;7.92;100.00
9289;BME280;4683;50.864;12.086;2024-03-07T09:20:56;99891.50;;;7.53;100.00
9289;BME280;4683;50.864;12.086;2024-03-07T09:23:25;99887.38;;;7.41;100.00
9289;BME280;4683;50.864;12.086;2024-03-07T09:25:54;99891.09;;;7.28;100.00
9289;BME280;4683;50.864;12.086;2024-03-07T09:28:23;99876.31;;;6.98;100.00
9289;BME280;4683;50.864;12.086;2024-03-07T09:30:53;99883.47;;;7.45;100.00
9289;BME280;4683;50.864;12.086;2024-03-07T09:33:22;99883.38;;;7.36;100.00
9289;BME280;4683;50.864;12.086;2024-03-07T09:35:52;99886.28;;;7.04;100.00
9289;BME280;4683;50.864;12.086;2024-03-07T09:38:21;99877.69;;;6.73;100.00
9289;BME280;4683;50.864;12.086;2024-03-07T09:40:51;99868.03;;;6.83;100.00
9289;BME280;4683;50.864;12.086;2024-03-07T09:43:20;99867.63;;;6.88;100.00
9289;BME280;4683;50.864;12.086;2024-03-07T09:45:51;99866.66;;;6.99;100.00
9289;BME280;4683;50.864;12.086;2024-03-07T09:48:23;99868.84;;;6.84;100.00
9289;BME280;4683;50.864;12.086;2024-03-07T09:50:55;99875.91;;;7.12;100.00
9289;BME280;4683;50.864;12.086;2024-03-07T09:53:31;99869.97;;;7.01;100.00
9289;BME280;4683;50.864;12.086;2024-03-07T09:56:05;99858.78;;;7.08;100.00
9289;BME280;4683;50.864;12.086;2024-03-07T09:58:36;99866.91;;;7.63;100.00
9289;BME280;4683;50.864;12.086;2024-03-07T10:01:07;99868.75;;;7.81;100.00
9289;BME280;4683;50.864;12.086;2024-03-07T10:03:38;99874.53;;;7.94;100.00
9289;BME280;4683;50.864;12.086;2024-03-07T10:06:11;99864.41;;;8.09;100.00
9289;BME280;4683;50.864;12.086;2024-03-07T10:08:40;99861.50;;;8.39;100.00
9289;BME280;4683;50.864;12.086;2024-03-07T10:11:09;99864.09;;;8.67;100.00
9289;BME280;4683;50.864;12.086;2024-03-07T10:13:37;99857.09;;;8.58;100.00
9289;BME280;4683;50.864;12.086;2024-03-07T10:16:09;99863.63;;;8.54;100.00
9289;BME280;4683;50.864;12.086;2024-03-07T10:18:42;99873.66;;;8.13;100.00
9289;BME280;4683;50.864;12.086;2024-03-07T10:21:14;99876.13;;;7.77;100.00
9289;BME280;4683;50.864;12.086;2024-03-07T10:23:46;99876.22;;;7.85;100.00
9289;BME280;4683;50.864;12.086;2024-03-07T10:26:16;99879.78;;;7.94;100.00
9289;BME280;4683;50.864;12.086;2024-03-07T10:28:51;99874.69;;;7.36;100.00
9289;BME280;4683;50.864;12.086;2024-03-07T10:31:34;99879.75;;;7.57;100.00
9289;BME280;4683;50.864;12.086;2024-03-07T10:34:05;99873.97;;;7.34;100.00
9289;BME280;4683;50.864;12.086;2024-03-07T10:36:35;99874.34;;;7.49;100.00
9289;BME280;4683;50.864;12.086;2024-03-07T10:39:05;99864.38;;;7.81;100.00
9289;BME280;4683;50.864;12.086;2024-03-07T10:41:46;99864.44;;;7.33;100.00
9289;BME280;4683;50.864;12.086;2024-03-07T10:44:25;99865.53;;;7.30;100.00
9289;BME280;4683;50.864;12.086;2024-03-07T10:47:08;99858.88;;;7.55;100.00
9289;BME280;4683;50.864;12.086;2024-03-07T10:49:47;99854.59;;;8.01;100.00
9289;BME280;4683;50.864;12.086;2024-03-07T10:52:28;99853.50;;;8.31;100.00
9289;BME280;4683;50.864;12.086;2024-03-07T10:55:08;99858.34;;;8.36;100.00
9289;BME280;4683;50.864;12.086;2024-03-07T10:57:49;99860.09;;;8.18;100.00
9289;BME280;4683;50.864;12.086;2024-03-07T11:00:22;99856.13;;;8.41;100.00
9289;BME280;4683;50.864;12.086;2024-03-07T11:03:04;99852.63;;;8.68;100.00
9289;BME280;4683;50.864;12.086;2024-03-07T11:05:35;99856.56;;;9.00;100.00
9289;BME280;4683;50.864;12.086;2024-03-07T11:08:05;99855.38;;;8.67;99.41
9289;BME280;4683;50.864;12.086;2024-03-07T11:10:39;99856.03;;;8.96;99.74
9289;BME280;4683;50.864;12.086;2024-03-07T11:13:10;99856.09;;;9.04;95.50
9289;BME280;4683;50.864;12.086;2024-03-07T11:15:43;99851.13;;;8.83;94.65
9289;BME280;4683;50.864;12.086;2024-03-07T11:18:15;99849.31;;;8.66;94.70
9289;BME280;4683;50.864;12.086;2024-03-07T11:20:45;99859.28;;;8.07;98.13
9289;BME280;4683;50.864;12.086;2024-03-07T11:23:30;99863.91;;;7.96;100.00
9289;BME280;4683;50.864;12.086;2024-03-07T11:26:05;99856.25;;;8.39;100.00
9289;BME280;4683;50.864;12.086;2024-03-07T11:28:36;99851.81;;;8.68;100.00
9289;BME280;4683;50.864;12.086;2024-03-07T11:31:12;99851.50;;;8.71;97.15
9289;BME280;4683;50.864;12.086;2024-03-07T11:33:43;99847.22;;;8.87;96.38
9289;BME280;4683;50.864;12.086;2024-03-07T11:36:44;99843.06;;;8.85;94.26
9289;BME280;4683;50.864;12.086;2024-03-07T11:39:47;99841.84;;;8.44;93.83
9289;BME280;4683;50.864;12.086;2024-03-07T11:42:23;99842.44;;;8.37;100.00
9289;BME280;4683;50.864;12.086;2024-03-07T11:44:55;99840.00;;;8.17;100.00
9289;BME280;4683;50.864;12.086;2024-03-07T11:47:36;99842.53;;;8.46;100.00
9289;BME280;4683;50.864;12.086;2024-03-07T11:50:12;99829.75;;;8.51;100.00
9289;BME280;4683;50.864;12.086;2024-03-07T11:52:41;99827.69;;;8.72;100.00
9289;BME280;4683;50.864;12.086;2024-03-07T11:55:13;99826.53;;;8.75;100.00
9289;BME280;4683;50.864;12.086;2024-03-07T11:57:43;99819.56;;;8.66;98.22
9289;BME280;4683;50.864;12.086;2024-03-07T12:00:17;99825.78;;;8.47;98.09
9289;BME280;4683;50.864;12.086;2024-03-07T12:02:46;99830.06;;;8.48;98.07
9289;BME280;4683;50.864;12.086;2024-03-07T12:05:17;99830.31;;;8.54;96.63
9289;BME280;4683;50.864;12.086;2024-03-07T12:07:46;99826.31;;;7.85;100.00
9289;BME280;4683;50.864;12.086;2024-03-07T12:10:16;99826.59;;;8.20;100.00
9289;BME280;4683;50.864;12.086;2024-03-07T12:12:52;99824.19;;;7.99;100.00
9289;BME280;4683;50.864;12.086;2024-03-07T12:15:24;99839.06;;;8.08;100.00
9289;BME280;4683;50.864;12.086;2024-03-07T12:17:55;99830.69;;;8.04;100.00
9289;BME280;4683;50.864;12.086;2024-03-07T12:20:26;99816.53;;;8.43;100.00
9289;BME280;4683;50.864;12.086;2024-03-07T12:22:58;99812.34;;;8.50;99.16
9289;BME280;4683;50.864;12.086;2024-03-07T12:25:29;99811.63;;;8.20;98.94
9289;BME280;4683;50.864;12.086;2024-03-07T12:28:03;99820.72;;;8.26;99.46
9289;BME280;4683;50.864;12.086;2024-03-07T12:30:35;99807.81;;;8.42;100.00
9289;BME280;4683;50.864;12.086;2024-03-07T12:33:05;99816.78;;;8.12;98.68
9289;BME280;4683;50.864;12.086;2024-03-07T12:35:37;99810.75;;;7.74;100.00
9289;BME280;4683;50.864;12.086;2024-03-07T12:38:06;99820.97;;;7.77;100.00
9289;BME280;4683;50.864;12.086;2024-03-07T12:40:35;99809.16;;;7.91;100.00
9289;BME280;4683;50.864;12.086;2024-03-07T12:43:14;99801.03;;;8.12;97.58
9289;BME280;4683;50.864;12.086;2024-03-07T12:45:53;99803.13;;;8.36;99.42
9289;BME280;4683;50.864;12.086;2024-03-07T12:48:22;99791.53;;;8.56;97.21
9289;BME280;4683;50.864;12.086;2024-03-07T12:50:53;99798.88;;;8.53;93.58
9289;BME280;4683;50.864;12.086;2024-03-07T12:53:22;99798.22;;;8.23;98.35
9289;BME280;4683;50.864;12.086;2024-03-07T12:55:52;99805.19;;;8.42;98.68
9289;BME280;4683;50.864;12.086;2024-03-07T12:58:21;99800.94;;;8.59;95.06
9289;BME280;4683;50.864;12.086;2024-03-07T13:00:52;99803.31;;;8.25;96.30
9289;BME280;4683;50.864;12.086;2024-03-07T13:03:22;99804.44;;;8.50;97.87
9289;BME280;4683;50.864;12.086;2024-03-07T13:05:57;99808.41;;;8.26;98.58
9289;BME280;4683;50.864;12.086;2024-03-07T13:08:30;99808.41;;;7.99;100.00
9289;BME280;4683;50.864;12.086;2024-03-07T13:10:58;99801.44;;;8.35;99.82
9289;BME280;4683;50.864;12.086;2024-03-07T13:13:28;99818.09;;;8.26;97.44
9289;BME280;4683;50.864;12.086;2024-03-07T13:15:57;99813.72;;;7.89;100.00
9289;BME280;4683;50.864;12.086;2024-03-07T13:18:26;99804.03;;;8.17;99.62
9289;BME280;4683;50.864;12.086;2024-03-07T13:20:57;99817.06;;;8.19;98.82
9289;BME280;4683;50.864;12.086;2024-03-07T13:23:27;99818.66;;;8.02;99.40
9289;BME280;4683;50.864;12.086;2024-03-07T13:25:56;99812.53;;;8.11;99.53
9289;BME280;4683;50.864;12.086;2024-03-07T13:28:26;99806.09;;;7.96;97.10
9289;BME280;4683;50.864;12.086;2024-03-07T13:30:57;99824.34;;;7.97;99.05